Seabreeze — 9HA3104 — position and weather

sailwx.info

Track history (hours):
 
Tides and Currents Weather Stations Pressure Air Temp Water Temp Dewpoint Dewpoint Depression Visibility Wind Speed Wind Dir Waves Ship Positions

Seabreeze

Last reported at 2018-Jan-23 06:11 UTC. Time now 2018-Jan-23 08:23 UTC.
Position N 37°43' W 000°11'.

Length 186 m; draft 7.5 m.

Type: Tanker. MMSI: 229145000.

Date/timePositionNaut miles runAvg speedWind from/ knotsBaromVisibWave heightAir tempDewpointWater temp
2018-Jan-23 06:11N 37°43' W 000°11'212.5
2018-Jan-23 06:00N 37°41' W 000°13'612.3
2018-Jan-23 05:30N 37°36' W 000°18'612.0
2018-Jan-23 04:59N 37°32' W 000°23'611.9
2018-Jan-23 04:30N 37°28' W 000°29'712.2
2018-Jan-23 03:53N 37°23' W 000°36'512.1
2018-Jan-23 03:30N 37°20' W 000°40'612.0
2018-Jan-23 03:00N 37°16' W 000°46'612.0
2018-Jan-23 02:30N 37°12' W 000°52'612.1
2018-Jan-23 02:00N 37°08' W 000°57'812.2
2018-Jan-23 01:22N 37°03' W 001°05'511.9
2018-Jan-23 00:56N 36°60' W 001°10'812.0
2018-Jan-23 00:13N 36°54' W 001°18'412.1
2018-Jan-22 23:55N 36°52' W 001°21'19312.7
2018-Jan-22 08:43N 35°59' W 005°12'315.7
2018-Jan-22 08:30N 35°59' W 005°16'816.8
2018-Jan-22 08:00N 35°58' W 005°26'28414.3
2018-Jan-21 12:09N 32°56' W 009°51'214.1
2018-Jan-21 12:00N 32°55' W 009°53'714.1
2018-Jan-21 11:30N 32°50' W 009°59'7114.0
2018-Jan-21 06:26N 31°59' W 010°57'613.9
2018-Jan-21 05:59N 31°54' W 011°02'1814.0
2018-Jan-21 04:42N 31°42' W 011°18'613.8
2018-Jan-21 04:16N 31°38' W 011°23'413.7
2018-Jan-21 04:00N 31°36' W 011°26'8213.5
2018-Jan-20 21:58N 30°37' W 012°33'17213.6
2018-Jan-20 09:18N 28°29' W 014°43'413.1
2018-Jan-20 08:58N 28°25' W 014°46'612.7
2018-Jan-20 08:30N 28°20' W 014°49'612.8
2018-Jan-20 08:00N 28°14' W 014°51'713.1
2018-Jan-20 07:31N 28°08' W 014°54'713.4
2018-Jan-20 07:00N 28°01' W 014°57'613.0
2018-Jan-20 06:30N 27°55' W 014°59'612.8
2018-Jan-20 06:00N 27°49' W 015°02'612.6
2018-Jan-20 05:31N 27°44' W 015°04'613.0
2018-Jan-20 05:00N 27°37' W 015°07'  
Track history (hours):
 
Tides and Currents Weather Stations Pressure Air Temp Water Temp Dewpoint Dewpoint Depression Visibility Wind Speed Wind Dir Waves Ship Positions

Seabreeze

Last reported at 2018-Jan-23 06:11 UTC. Time now 2018-Jan-23 08:23 UTC.
Position N 37°43' W 000°11'.

Length 186 m; draft 7.5 m.

Type: Tanker. MMSI: 229145000.

Date/timePositionNaut miles runAvg speedWind from/ knotsBaromVisibWave heightAir tempDewpointWater temp
2018-Jan-23 06:11N 37°43' W 000°11'212.5
2018-Jan-23 06:00N 37°41' W 000°13'612.3
2018-Jan-23 05:30N 37°36' W 000°18'612.0
2018-Jan-23 04:59N 37°32' W 000°23'611.9
2018-Jan-23 04:30N 37°28' W 000°29'712.2
2018-Jan-23 03:53N 37°23' W 000°36'512.1
2018-Jan-23 03:30N 37°20' W 000°40'612.0
2018-Jan-23 03:00N 37°16' W 000°46'612.0
2018-Jan-23 02:30N 37°12' W 000°52'612.1
2018-Jan-23 02:00N 37°08' W 000°57'812.2
2018-Jan-23 01:22N 37°03' W 001°05'511.9
2018-Jan-23 00:56N 36°60' W 001°10'812.0
2018-Jan-23 00:13N 36°54' W 001°18'412.1
2018-Jan-22 23:55N 36°52' W 001°21'19312.7
2018-Jan-22 08:43N 35°59' W 005°12'315.7
2018-Jan-22 08:30N 35°59' W 005°16'816.8
2018-Jan-22 08:00N 35°58' W 005°26'28414.3
2018-Jan-21 12:09N 32°56' W 009°51'214.1
2018-Jan-21 12:00N 32°55' W 009°53'714.1
2018-Jan-21 11:30N 32°50' W 009°59'7114.0
2018-Jan-21 06:26N 31°59' W 010°57'613.9
2018-Jan-21 05:59N 31°54' W 011°02'1814.0
2018-Jan-21 04:42N 31°42' W 011°18'613.8
2018-Jan-21 04:16N 31°38' W 011°23'413.7
2018-Jan-21 04:00N 31°36' W 011°26'8213.5
2018-Jan-20 21:58N 30°37' W 012°33'17213.6
2018-Jan-20 09:18N 28°29' W 014°43'413.1
2018-Jan-20 08:58N 28°25' W 014°46'612.7
2018-Jan-20 08:30N 28°20' W 014°49'612.8
2018-Jan-20 08:00N 28°14' W 014°51'713.1
2018-Jan-20 07:31N 28°08' W 014°54'713.4
2018-Jan-20 07:00N 28°01' W 014°57'613.0
2018-Jan-20 06:30N 27°55' W 014°59'612.8
2018-Jan-20 06:00N 27°49' W 015°02'612.6
2018-Jan-20 05:31N 27°44' W 015°04'613.0
2018-Jan-20 05:00N 27°37' W 015°07'  

Dump ship's entire track history